sensor_id;sensor_type;location;lat;lon;timestamp;temperature;humidity
78184;DHT22;67442;44.570;18.610;2023-07-13T00:01:09;26.30;62.90
78184;DHT22;67442;44.570;18.610;2023-07-13T00:03:39;26.30;63.00
78184;DHT22;67442;44.570;18.610;2023-07-13T00:06:11;26.30;63.00
78184;DHT22;67442;44.570;18.610;2023-07-13T00:08:38;26.30;63.10
78184;DHT22;67442;44.570;18.610;2023-07-13T00:11:05;26.30;63.10
78184;DHT22;67442;44.570;18.610;2023-07-13T00:13:36;26.40;63.20
78184;DHT22;67442;44.570;18.610;2023-07-13T00:16:08;26.40;63.30
78184;DHT22;67442;44.570;18.610;2023-07-13T00:18:35;26.40;63.30
78184;DHT22;67442;44.570;18.610;2023-07-13T00:21:07;26.40;63.50
78184;DHT22;67442;44.570;18.610;2023-07-13T00:23:40;26.40;63.50
78184;DHT22;67442;44.570;18.610;2023-07-13T00:26:11;26.40;63.50
78184;DHT22;67442;44.570;18.610;2023-07-13T00:28:39;26.40;63.50
78184;DHT22;67442;44.570;18.610;2023-07-13T00:31:06;26.40;63.60
78184;DHT22;67442;44.570;18.610;2023-07-13T00:33:33;26.40;63.60
78184;DHT22;67442;44.570;18.610;2023-07-13T00:36:00;26.40;63.70
78184;DHT22;67442;44.570;18.610;2023-07-13T00:38:27;26.40;63.70
78184;DHT22;67442;44.570;18.610;2023-07-13T00:40:55;26.40;63.70
78184;DHT22;67442;44.570;18.610;2023-07-13T00:43:23;26.40;63.80
78184;DHT22;67442;44.570;18.610;2023-07-13T00:48:22;26.40;63.80
78184;DHT22;67442;44.570;18.610;2023-07-13T00:50:55;26.50;63.90
78184;DHT22;67442;44.570;18.610;2023-07-13T00:53:29;26.40;63.90
78184;DHT22;67442;44.570;18.610;2023-07-13T00:55:58;26.40;63.90
78184;DHT22;67442;44.570;18.610;2023-07-13T00:58:29;26.50;64.00
78184;DHT22;67442;44.570;18.610;2023-07-13T01:00:56;26.50;64.00
78184;DHT22;67442;44.570;18.610;2023-07-13T01:03:24;26.50;64.00
78184;DHT22;67442;44.570;18.610;2023-07-13T01:05:51;26.50;64.20
78184;DHT22;67442;44.570;18.610;2023-07-13T01:08:22;26.50;64.10
78184;DHT22;67442;44.570;18.610;2023-07-13T01:10:53;26.50;64.20
78184;DHT22;67442;44.570;18.610;2023-07-13T01:13:21;26.50;64.20
78184;DHT22;67442;44.570;18.610;2023-07-13T01:15:52;26.50;64.20
78184;DHT22;67442;44.570;18.610;2023-07-13T01:18:22;26.50;64.20
78184;DHT22;67442;44.570;18.610;2023-07-13T01:20:57;26.50;64.30
78184;DHT22;67442;44.570;18.610;2023-07-13T01:23:28;26.50;64.30
78184;DHT22;67442;44.570;18.610;2023-07-13T01:25:59;26.50;64.30
78184;DHT22;67442;44.570;18.610;2023-07-13T01:28:27;26.50;64.30
78184;DHT22;67442;44.570;18.610;2023-07-13T01:30:55;26.50;64.30
78184;DHT22;67442;44.570;18.610;2023-07-13T01:33:22;26.50;64.30
78184;DHT22;67442;44.570;18.610;2023-07-13T01:35:49;26.50;64.30
78184;DHT22;67442;44.570;18.610;2023-07-13T01:38:18;26.50;64.30
78184;DHT22;67442;44.570;18.610;2023-07-13T01:40:46;26.50;64.40
78184;DHT22;67442;44.570;18.610;2023-07-13T01:43:13;26.60;64.50
78184;DHT22;67442;44.570;18.610;2023-07-13T01:45:40;26.50;64.40
78184;DHT22;67442;44.570;18.610;2023-07-13T01:48:07;26.50;64.50
78184;DHT22;67442;44.570;18.610;2023-07-13T01:50:38;26.60;64.50
78184;DHT22;67442;44.570;18.610;2023-07-13T01:53:08;26.60;64.50
78184;DHT22;67442;44.570;18.610;2023-07-13T01:55:35;26.60;64.50
78184;DHT22;67442;44.570;18.610;2023-07-13T01:58:02;26.60;64.50
78184;DHT22;67442;44.570;18.610;2023-07-13T02:00:34;26.50;64.40
78184;DHT22;67442;44.570;18.610;2023-07-13T02:03:01;26.60;64.50
78184;DHT22;67442;44.570;18.610;2023-07-13T02:05:28;26.60;64.50
78184;DHT22;67442;44.570;18.610;2023-07-13T02:07:55;26.60;64.50
78184;DHT22;67442;44.570;18.610;2023-07-13T02:10:22;26.60;64.60
78184;DHT22;67442;44.570;18.610;2023-07-13T02:12:51;26.60;64.50
78184;DHT22;67442;44.570;18.610;2023-07-13T02:15:18;26.60;64.60
78184;DHT22;67442;44.570;18.610;2023-07-13T02:17:46;26.60;64.60
78184;DHT22;67442;44.570;18.610;2023-07-13T02:20:13;26.60;64.50
78184;DHT22;67442;44.570;18.610;2023-07-13T02:22:40;26.60;64.50
78184;DHT22;67442;44.570;18.610;2023-07-13T02:25:08;26.60;64.50
78184;DHT22;67442;44.570;18.610;2023-07-13T02:27:35;26.60;64.50
78184;DHT22;67442;44.570;18.610;2023-07-13T02:30:04;26.60;64.60
78184;DHT22;67442;44.570;18.610;2023-07-13T02:32:32;26.60;64.60
78184;DHT22;67442;44.570;18.610;2023-07-13T02:35:00;26.60;64.60
78184;DHT22;67442;44.570;18.610;2023-07-13T02:37:27;26.60;64.60
78184;DHT22;67442;44.570;18.610;2023-07-13T02:39:54;26.60;64.60
78184;DHT22;67442;44.570;18.610;2023-07-13T02:42:22;26.60;64.70
78184;DHT22;67442;44.570;18.610;2023-07-13T02:44:49;26.60;64.70
78184;DHT22;67442;44.570;18.610;2023-07-13T02:47:17;26.60;64.70
78184;DHT22;67442;44.570;18.610;2023-07-13T02:49:44;26.70;64.70
78184;DHT22;67442;44.570;18.610;2023-07-13T02:52:11;26.60;64.70
78184;DHT22;67442;44.570;18.610;2023-07-13T02:54:39;26.60;64.70
78184;DHT22;67442;44.570;18.610;2023-07-13T02:57:07;26.70;64.90
78184;DHT22;67442;44.570;18.610;2023-07-13T02:59:38;26.70;64.90
78184;DHT22;67442;44.570;18.610;2023-07-13T03:02:05;26.70;64.90
78184;DHT22;67442;44.570;18.610;2023-07-13T03:04:32;26.70;64.90
78184;DHT22;67442;44.570;18.610;2023-07-13T03:07:00;26.70;64.90
78184;DHT22;67442;44.570;18.610;2023-07-13T03:09:27;26.60;64.90
78184;DHT22;67442;44.570;18.610;2023-07-13T03:11:58;26.70;65.00
78184;DHT22;67442;44.570;18.610;2023-07-13T03:14:24;26.70;65.00
78184;DHT22;67442;44.570;18.610;2023-07-13T03:16:52;26.70;65.00
78184;DHT22;67442;44.570;18.610;2023-07-13T03:19:19;26.70;65.10
78184;DHT22;67442;44.570;18.610;2023-07-13T03:21:47;26.70;65.10
78184;DHT22;67442;44.570;18.610;2023-07-13T03:24:14;26.70;65.10
78184;DHT22;67442;44.570;18.610;2023-07-13T03:26:47;26.70;65.10
78184;DHT22;67442;44.570;18.610;2023-07-13T03:29:18;26.70;65.10
78184;DHT22;67442;44.570;18.610;2023-07-13T03:31:49;26.70;65.20
78184;DHT22;67442;44.570;18.610;2023-07-13T03:34:16;26.70;65.10
78184;DHT22;67442;44.570;18.610;2023-07-13T03:36:43;26.70;65.10
78184;DHT22;67442;44.570;18.610;2023-07-13T03:39:10;26.70;65.10
78184;DHT22;67442;44.570;18.610;2023-07-13T03:41:37;26.70;65.10
78184;DHT22;67442;44.570;18.610;2023-07-13T03:44:05;26.70;65.10
78184;DHT22;67442;44.570;18.610;2023-07-13T03:46:35;26.70;65.10
78184;DHT22;67442;44.570;18.610;2023-07-13T03:49:06;26.70;65.10
78184;DHT22;67442;44.570;18.610;2023-07-13T03:51:34;26.70;65.10
78184;DHT22;67442;44.570;18.610;2023-07-13T03:54:05;26.70;65.20
78184;DHT22;67442;44.570;18.610;2023-07-13T03:56:36;26.70;65.20
78184;DHT22;67442;44.570;18.610;2023-07-13T03:59:04;26.70;65.20
78184;DHT22;67442;44.570;18.610;2023-07-13T04:01:30;26.70;65.20
78184;DHT22;67442;44.570;18.610;2023-07-13T04:03:58;26.70;65.20
78184;DHT22;67442;44.570;18.610;2023-07-13T04:06:29;26.70;65.20
78184;DHT22;67442;44.570;18.610;2023-07-13T04:08:59;26.70;65.20
78184;DHT22;67442;44.570;18.610;2023-07-13T04:11:28;26.70;65.20
78184;DHT22;67442;44.570;18.610;2023-07-13T04:13:55;26.70;65.20
78184;DHT22;67442;44.570;18.610;2023-07-13T04:16:25;26.70;65.20
78184;DHT22;67442;44.570;18.610;2023-07-13T04:18:54;26.80;65.40
78184;DHT22;67442;44.570;18.610;2023-07-13T04:21:26;26.70;65.40
78184;DHT22;67442;44.570;18.610;2023-07-13T04:23:53;26.80;65.60
78184;DHT22;67442;44.570;18.610;2023-07-13T04:26:20;26.70;65.60
78184;DHT22;67442;44.570;18.610;2023-07-13T04:28:51;26.80;65.70
78184;DHT22;67442;44.570;18.610;2023-07-13T04:31:18;26.70;65.60
78184;DHT22;67442;44.570;18.610;2023-07-13T04:33:45;26.70;65.70
78184;DHT22;67442;44.570;18.610;2023-07-13T04:36:16;26.70;65.70
78184;DHT22;67442;44.570;18.610;2023-07-13T04:38:46;26.80;65.80
78184;DHT22;67442;44.570;18.610;2023-07-13T04:41:13;26.80;65.90
78184;DHT22;67442;44.570;18.610;2023-07-13T04:43:41;26.80;65.70
78184;DHT22;67442;44.570;18.610;2023-07-13T04:46:12;26.80;65.90
78184;DHT22;67442;44.570;18.610;2023-07-13T04:48:39;26.80;66.00
78184;DHT22;67442;44.570;18.610;2023-07-13T04:51:07;26.80;66.00
78184;DHT22;67442;44.570;18.610;2023-07-13T04:53:34;26.80;66.00
78184;DHT22;67442;44.570;18.610;2023-07-13T04:56:01;26.80;66.00
78184;DHT22;67442;44.570;18.610;2023-07-13T04:58:28;26.80;66.10
78184;DHT22;67442;44.570;18.610;2023-07-13T05:01:15;26.80;66.10
78184;DHT22;67442;44.570;18.610;2023-07-13T05:03:42;26.80;66.00
78184;DHT22;67442;44.570;18.610;2023-07-13T05:06:10;26.80;66.00
78184;DHT22;67442;44.570;18.610;2023-07-13T05:08:42;26.80;66.10
78184;DHT22;67442;44.570;18.610;2023-07-13T05:11:09;26.80;66.00
78184;DHT22;67442;44.570;18.610;2023-07-13T05:13:40;26.80;66.00
78184;DHT22;67442;44.570;18.610;2023-07-13T05:16:07;26.80;66.00
78184;DHT22;67442;44.570;18.610;2023-07-13T05:18:34;26.80;66.00
78184;DHT22;67442;44.570;18.610;2023-07-13T05:21:07;26.80;66.00
78184;DHT22;67442;44.570;18.610;2023-07-13T05:23:38;26.80;66.70
78184;DHT22;67442;44.570;18.610;2023-07-13T05:26:11;26.90;66.00
78184;DHT22;67442;44.570;18.610;2023-07-13T05:28:37;26.80;65.90
78184;DHT22;67442;44.570;18.610;2023-07-13T05:31:06;26.80;65.90
78184;DHT22;67442;44.570;18.610;2023-07-13T05:33:33;26.80;65.80
78184;DHT22;67442;44.570;18.610;2023-07-13T05:36:00;26.80;65.10
78184;DHT22;67442;44.570;18.610;2023-07-13T05:38:31;26.80;65.70
78184;DHT22;67442;44.570;18.610;2023-07-13T05:40:58;26.80;65.70
78184;DHT22;67442;44.570;18.610;2023-07-13T05:43:29;26.80;65.70
78184;DHT22;67442;44.570;18.610;2023-07-13T05:46:00;26.80;65.70
78184;DHT22;67442;44.570;18.610;2023-07-13T05:48:27;26.80;65.70
78184;DHT22;67442;44.570;18.610;2023-07-13T05:50:54;26.80;65.60
78184;DHT22;67442;44.570;18.610;2023-07-13T05:53:22;26.80;65.60
78184;DHT22;67442;44.570;18.610;2023-07-13T05:55:49;26.80;65.60
78184;DHT22;67442;44.570;18.610;2023-07-13T05:58:19;26.80;65.60
78184;DHT22;67442;44.570;18.610;2023-07-13T06:01:03;26.80;65.60
78184;DHT22;67442;44.570;18.610;2023-07-13T06:03:30;26.80;65.60
78184;DHT22;67442;44.570;18.610;2023-07-13T06:05:58;26.90;65.80
78184;DHT22;67442;44.570;18.610;2023-07-13T06:08:29;26.90;65.70
78184;DHT22;67442;44.570;18.610;2023-07-13T06:11:20;26.90;65.80
78184;DHT22;67442;44.570;18.610;2023-07-13T06:13:47;26.90;65.70
78184;DHT22;67442;44.570;18.610;2023-07-13T06:16:18;26.80;65.60
78184;DHT22;67442;44.570;18.610;2023-07-13T06:18:45;26.80;65.60
78184;DHT22;67442;44.570;18.610;2023-07-13T06:21:18;26.90;65.70
78184;DHT22;67442;44.570;18.610;2023-07-13T06:23:51;26.80;65.50
78184;DHT22;67442;44.570;18.610;2023-07-13T06:26:22;26.80;65.40
78184;DHT22;67442;44.570;18.610;2023-07-13T06:28:49;26.80;65.50
78184;DHT22;67442;44.570;18.610;2023-07-13T06:31:20;26.90;65.60
78184;DHT22;67442;44.570;18.610;2023-07-13T06:33:47;26.80;65.50
78184;DHT22;67442;44.570;18.610;2023-07-13T06:36:18;26.80;65.40
78184;DHT22;67442;44.570;18.610;2023-07-13T06:38:45;26.90;65.50
78184;DHT22;67442;44.570;18.610;2023-07-13T06:41:12;26.90;65.50
78184;DHT22;67442;44.570;18.610;2023-07-13T06:43:39;26.90;65.50
78184;DHT22;67442;44.570;18.610;2023-07-13T06:46:06;26.90;65.50
78184;DHT22;67442;44.570;18.610;2023-07-13T06:48:37;26.80;65.40
78184;DHT22;67442;44.570;18.610;2023-07-13T06:51:08;26.90;65.50
78184;DHT22;67442;44.570;18.610;2023-07-13T06:53:38;26.90;65.50
78184;DHT22;67442;44.570;18.610;2023-07-13T06:56:05;26.90;65.40
78184;DHT22;67442;44.570;18.610;2023-07-13T06:58:33;26.90;65.40
78184;DHT22;67442;44.570;18.610;2023-07-13T07:01:01;26.90;65.40
78184;DHT22;67442;44.570;18.610;2023-07-13T07:03:28;26.90;65.40
78184;DHT22;67442;44.570;18.610;2023-07-13T07:06:01;26.80;65.30
78184;DHT22;67442;44.570;18.610;2023-07-13T07:08:32;26.90;65.40
78184;DHT22;67442;44.570;18.610;2023-07-13T07:11:03;26.90;65.40
78184;DHT22;67442;44.570;18.610;2023-07-13T07:13:34;26.90;65.40
78184;DHT22;67442;44.570;18.610;2023-07-13T07:16:00;26.90;66.20
78184;DHT22;67442;44.570;18.610;2023-07-13T07:18:28;26.90;65.40
78184;DHT22;67442;44.570;18.610;2023-07-13T07:20:58;26.90;65.50
78184;DHT22;67442;44.570;18.610;2023-07-13T07:23:30;26.90;65.40
78184;DHT22;67442;44.570;18.610;2023-07-13T07:25:56;26.90;65.40
78184;DHT22;67442;44.570;18.610;2023-07-13T07:28:25;26.90;65.40
78184;DHT22;67442;44.570;18.610;2023-07-13T07:30:53;26.90;65.40
78184;DHT22;67442;44.570;18.610;2023-07-13T07:33:20;26.90;66.20
78184;DHT22;67442;44.570;18.610;2023-07-13T07:35:51;26.90;65.40
78184;DHT22;67442;44.570;18.610;2023-07-13T07:38:17;26.90;65.40
78184;DHT22;67442;44.570;18.610;2023-07-13T07:40:44;26.90;65.40
78184;DHT22;67442;44.570;18.610;2023-07-13T07:43:12;26.90;65.40
78184;DHT22;67442;44.570;18.610;2023-07-13T07:45:39;26.90;65.40
78184;DHT22;67442;44.570;18.610;2023-07-13T07:48:06;26.90;65.40
78184;DHT22;67442;44.570;18.610;2023-07-13T07:50:33;26.90;65.40
78184;DHT22;67442;44.570;18.610;2023-07-13T07:53:00;26.90;65.40
78184;DHT22;67442;44.570;18.610;2023-07-13T07:55:28;26.90;65.40
78184;DHT22;67442;44.570;18.610;2023-07-13T07:57:59;26.90;65.40
78184;DHT22;67442;44.570;18.610;2023-07-13T08:00:26;26.90;65.40
78184;DHT22;67442;44.570;18.610;2023-07-13T08:02:54;26.90;65.40
78184;DHT22;67442;44.570;18.610;2023-07-13T08:05:21;26.90;65.40
78184;DHT22;67442;44.570;18.610;2023-07-13T08:07:53;26.90;65.40
78184;DHT22;67442;44.570;18.610;2023-07-13T08:10:19;26.90;65.40
78184;DHT22;67442;44.570;18.610;2023-07-13T08:12:46;26.90;65.30
78184;DHT22;67442;44.570;18.610;2023-07-13T08:15:19;26.90;66.10
78184;DHT22;67442;44.570;18.610;2023-07-13T08:17:48;26.90;65.40
78184;DHT22;67442;44.570;18.610;2023-07-13T08:20:15;26.90;65.30
78184;DHT22;67442;44.570;18.610;2023-07-13T08:22:42;26.90;65.40
78184;DHT22;67442;44.570;18.610;2023-07-13T08:25:12;26.90;65.40
78184;DHT22;67442;44.570;18.610;2023-07-13T08:27:40;26.90;65.30
78184;DHT22;67442;44.570;18.610;2023-07-13T08:30:08;26.90;65.40
78184;DHT22;67442;44.570;18.610;2023-07-13T08:32:37;26.90;65.30
78184;DHT22;67442;44.570;18.610;2023-07-13T08:35:06;26.90;65.30
78184;DHT22;67442;44.570;18.610;2023-07-13T08:37:32;26.90;65.30
78184;DHT22;67442;44.570;18.610;2023-07-13T08:40:00;27.00;65.40
78184;DHT22;67442;44.570;18.610;2023-07-13T08:45:21;26.90;65.30
78184;DHT22;67442;44.570;18.610;2023-07-13T08:48:26;27.00;65.40
78184;DHT22;67442;44.570;18.610;2023-07-13T08:53:24;26.90;65.20
78184;DHT22;67442;44.570;18.610;2023-07-13T08:55:59;27.00;65.40
78184;DHT22;67442;44.570;18.610;2023-07-13T08:58:27;26.90;65.20
78184;DHT22;67442;44.570;18.610;2023-07-13T09:01:18;27.00;65.40
78184;DHT22;67442;44.570;18.610;2023-07-13T09:04:09;26.90;65.30
78184;DHT22;67442;44.570;18.610;2023-07-13T09:06:55;26.90;65.20
78184;DHT22;67442;44.570;18.610;2023-07-13T09:15:34;27.00;65.30
78184;DHT22;67442;44.570;18.610;2023-07-13T09:18:18;27.00;65.30
78184;DHT22;67442;44.570;18.610;2023-07-13T09:20:57;27.00;65.40
78184;DHT22;67442;44.570;18.610;2023-07-13T09:23:28;26.90;65.30
78184;DHT22;67442;44.570;18.610;2023-07-13T09:26:18;27.00;65.40
78184;DHT22;67442;44.570;18.610;2023-07-13T09:28:54;27.00;65.40
78184;DHT22;67442;44.570;18.610;2023-07-13T09:31:41;27.00;65.30
78184;DHT22;67442;44.570;18.610;2023-07-13T09:34:11;27.00;65.30
78184;DHT22;67442;44.570;18.610;2023-07-13T09:36:37;27.00;65.30
78184;DHT22;67442;44.570;18.610;2023-07-13T09:44:14;27.00;65.40
78184;DHT22;67442;44.570;18.610;2023-07-13T09:46:52;27.00;65.30
78184;DHT22;67442;44.570;18.610;2023-07-13T09:49:29;27.00;65.30
78184;DHT22;67442;44.570;18.610;2023-07-13T09:52:06;26.90;65.30
78184;DHT22;67442;44.570;18.610;2023-07-13T09:54:35;27.00;65.40
78184;DHT22;67442;44.570;18.610;2023-07-13T09:57:11;27.00;65.40
78184;DHT22;67442;44.570;18.610;2023-07-13T09:59:47;27.00;65.30
78184;DHT22;67442;44.570;18.610;2023-07-13T10:02:34;27.00;65.30
78184;DHT22;67442;44.570;18.610;2023-07-13T10:05:11;27.00;65.30
78184;DHT22;67442;44.570;18.610;2023-07-13T10:07:45;27.00;65.30
78184;DHT22;67442;44.570;18.610;2023-07-13T10:10:20;27.00;65.30
78184;DHT22;67442;44.570;18.610;2023-07-13T10:12:47;27.00;65.30
78184;DHT22;67442;44.570;18.610;2023-07-13T10:15:22;27.00;65.30
78184;DHT22;67442;44.570;18.610;2023-07-13T10:17:53;27.00;65.30
78184;DHT22;67442;44.570;18.610;2023-07-13T10:20:24;27.00;65.30
78184;DHT22;67442;44.570;18.610;2023-07-13T10:23:11;27.00;65.30
78184;DHT22;67442;44.570;18.610;2023-07-13T10:25:42;27.00;65.30
78184;DHT22;67442;44.570;18.610;2023-07-13T10:28:31;27.00;65.30
78184;DHT22;67442;44.570;18.610;2023-07-13T10:31:01;27.00;65.30
78184;DHT22;67442;44.570;18.610;2023-07-13T10:33:29;27.00;65.30
78184;DHT22;67442;44.570;18.610;2023-07-13T10:38:56;27.00;65.30
78184;DHT22;67442;44.570;18.610;2023-07-13T10:41:25;27.00;65.30
78184;DHT22;67442;44.570;18.610;2023-07-13T10:43:55;27.00;65.30
78184;DHT22;67442;44.570;18.610;2023-07-13T10:46:26;27.00;65.30
78184;DHT22;67442;44.570;18.610;2023-07-13T10:49:03;27.00;65.30
78184;DHT22;67442;44.570;18.610;2023-07-13T10:51:35;27.00;65.30
78184;DHT22;67442;44.570;18.610;2023-07-13T10:54:20;27.00;65.30
78184;DHT22;67442;44.570;18.610;2023-07-13T10:59:39;27.00;65.30
78184;DHT22;67442;44.570;18.610;2023-07-13T11:02:23;27.00;65.30
78184;DHT22;67442;44.570;18.610;2023-07-13T11:04:56;27.00;65.30
78184;DHT22;67442;44.570;18.610;2023-07-13T11:07:29;27.00;65.30
78184;DHT22;67442;44.570;18.610;2023-07-13T11:10:04;27.00;65.30
78184;DHT22;67442;44.570;18.610;2023-07-13T11:15:14;27.00;65.30
78184;DHT22;67442;44.570;18.610;2023-07-13T11:17:53;27.00;65.30
78184;DHT22;67442;44.570;18.610;2023-07-13T11:20:39;27.00;65.30
78184;DHT22;67442;44.570;18.610;2023-07-13T11:25:39;27.00;65.30
78184;DHT22;67442;44.570;18.610;2023-07-13T11:33:30;27.10;65.40
78184;DHT22;67442;44.570;18.610;2023-07-13T11:36:17;27.10;65.40
78184;DHT22;67442;44.570;18.610;2023-07-13T11:41:30;27.10;65.40
78184;DHT22;67442;44.570;18.610;2023-07-13T11:44:24;27.10;65.50
78184;DHT22;67442;44.570;18.610;2023-07-13T11:46:58;27.10;65.40
78184;DHT22;67442;44.570;18.610;2023-07-13T11:49:31;27.10;65.40
78184;DHT22;67442;44.570;18.610;2023-07-13T11:52:02;27.10;65.40
78184;DHT22;67442;44.570;18.610;2023-07-13T11:54:48;27.00;65.30
78184;DHT22;67442;44.570;18.610;2023-07-13T11:59:55;27.00;65.30
78184;DHT22;67442;44.570;18.610;2023-07-13T12:02:31;27.10;65.40
78184;DHT22;67442;44.570;18.610;2023-07-13T12:05:05;27.10;65.40
78184;DHT22;67442;44.570;18.610;2023-07-13T12:07:34;27.10;65.50
78184;DHT22;67442;44.570;18.610;2023-07-13T12:10:27;27.10;65.40
78184;DHT22;67442;44.570;18.610;2023-07-13T12:13:02;27.10;65.40
78184;DHT22;67442;44.570;18.610;2023-07-13T12:15:43;27.10;65.40
78184;DHT22;67442;44.570;18.610;2023-07-13T12:18:21;27.10;65.40
78184;DHT22;67442;44.570;18.610;2023-07-13T12:20:49;27.10;65.40
78184;DHT22;67442;44.570;18.610;2023-07-13T12:23:32;27.10;65.40
78184;DHT22;67442;44.570;18.610;2023-07-13T12:26:01;27.10;65.40
78184;DHT22;67442;44.570;18.610;2023-07-13T12:31:07;27.10;65.40
78184;DHT22;67442;44.570;18.610;2023-07-13T12:33:45;27.10;65.40
78184;DHT22;67442;44.570;18.610;2023-07-13T12:36:12;27.10;65.40
78184;DHT22;67442;44.570;18.610;2023-07-13T12:38:46;27.10;65.40
78184;DHT22;67442;44.570;18.610;2023-07-13T12:41:13;27.10;65.40
78184;DHT22;67442;44.570;18.610;2023-07-13T12:43:46;27.10;65.40
78184;DHT22;67442;44.570;18.610;2023-07-13T12:46:23;27.10;65.40
78184;DHT22;67442;44.570;18.610;2023-07-13T12:48:53;27.10;65.50
78184;DHT22;67442;44.570;18.610;2023-07-13T12:51:26;27.10;65.40
78184;DHT22;67442;44.570;18.610;2023-07-13T12:54:19;27.10;65.40
78184;DHT22;67442;44.570;18.610;2023-07-13T12:56:50;27.10;65.40
78184;DHT22;67442;44.570;18.610;2023-07-13T12:59:21;27.10;65.50
78184;DHT22;67442;44.570;18.610;2023-07-13T13:01:53;27.10;65.40
78184;DHT22;67442;44.570;18.610;2023-07-13T13:04:20;27.10;65.40
78184;DHT22;67442;44.570;18.610;2023-07-13T13:07:02;27.10;65.40
78184;DHT22;67442;44.570;18.610;2023-07-13T13:09:28;27.10;65.50
78184;DHT22;67442;44.570;18.610;2023-07-13T13:11:55;27.10;65.40
78184;DHT22;67442;44.570;18.610;2023-07-13T13:14:23;27.10;65.40
78184;DHT22;67442;44.570;18.610;2023-07-13T13:16:54;27.10;65.50
78184;DHT22;67442;44.570;18.610;2023-07-13T13:19:28;27.10;65.50
78184;DHT22;67442;44.570;18.610;2023-07-13T13:21:59;27.10;65.50
78184;DHT22;67442;44.570;18.610;2023-07-13T13:24:31;27.10;65.50
78184;DHT22;67442;44.570;18.610;2023-07-13T13:26:58;27.20;65.50
78184;DHT22;67442;44.570;18.610;2023-07-13T13:29:31;27.10;65.50
78184;DHT22;67442;44.570;18.610;2023-07-13T13:32:02;27.10;65.40
78184;DHT22;67442;44.570;18.610;2023-07-13T13:34:31;27.20;65.50
78184;DHT22;67442;44.570;18.610;2023-07-13T13:37:04;27.10;65.50
78184;DHT22;67442;44.570;18.610;2023-07-13T13:39:36;27.10;65.40
78184;DHT22;67442;44.570;18.610;2023-07-13T13:42:10;27.10;65.50
78184;DHT22;67442;44.570;18.610;2023-07-13T13:44:37;27.20;65.50
78184;DHT22;67442;44.570;18.610;2023-07-13T13:47:04;27.20;65.50
78184;DHT22;67442;44.570;18.610;2023-07-13T13:49:35;27.10;65.50
78184;DHT22;67442;44.570;18.610;2023-07-13T13:52:09;27.20;65.50
78184;DHT22;67442;44.570;18.610;2023-07-13T13:54:36;27.20;65.60
78184;DHT22;67442;44.570;18.610;2023-07-13T13:57:05;27.20;65.50
78184;DHT22;67442;44.570;18.610;2023-07-13T13:59:33;27.20;65.60
78184;DHT22;67442;44.570;18.610;2023-07-13T14:02:28;27.20;65.50
78184;DHT22;67442;44.570;18.610;2023-07-13T14:05:00;27.20;65.50
78184;DHT22;67442;44.570;18.610;2023-07-13T14:07:27;27.20;65.50
78184;DHT22;67442;44.570;18.610;2023-07-13T14:10:01;27.20;65.50
78184;DHT22;67442;44.570;18.610;2023-07-13T14:12:28;27.20;65.50
78184;DHT22;67442;44.570;18.610;2023-07-13T14:14:57;27.20;65.60
78184;DHT22;67442;44.570;18.610;2023-07-13T14:17:25;27.20;65.70
78184;DHT22;67442;44.570;18.610;2023-07-13T14:19:53;27.20;65.70
78184;DHT22;67442;44.570;18.610;2023-07-13T14:22:24;27.20;65.60
78184;DHT22;67442;44.570;18.610;2023-07-13T14:24:55;27.20;65.70
78184;DHT22;67442;44.570;18.610;2023-07-13T14:27:27;27.20;65.60
78184;DHT22;67442;44.570;18.610;2023-07-13T14:29:58;27.20;65.70
78184;DHT22;67442;44.570;18.610;2023-07-13T14:32:30;27.20;65.70
78184;DHT22;67442;44.570;18.610;2023-07-13T14:35:01;27.20;65.70
78184;DHT22;67442;44.570;18.610;2023-07-13T14:37:29;27.20;65.80
78184;DHT22;67442;44.570;18.610;2023-07-13T14:40:00;27.20;65.80
78184;DHT22;67442;44.570;18.610;2023-07-13T14:42:27;27.20;65.80
78184;DHT22;67442;44.570;18.610;2023-07-13T14:44:54;27.20;65.80
78184;DHT22;67442;44.570;18.610;2023-07-13T14:47:26;27.20;65.80
78184;DHT22;67442;44.570;18.610;2023-07-13T14:49:53;27.20;65.80
78184;DHT22;67442;44.570;18.610;2023-07-13T14:52:22;27.20;65.80
78184;DHT22;67442;44.570;18.610;2023-07-13T14:54:49;27.30;65.90
78184;DHT22;67442;44.570;18.610;2023-07-13T14:57:20;27.20;65.80
78184;DHT22;67442;44.570;18.610;2023-07-13T14:59:48;27.20;65.80
78184;DHT22;67442;44.570;18.610;2023-07-13T15:02:37;27.20;65.80
78184;DHT22;67442;44.570;18.610;2023-07-13T15:05:37;27.20;65.80
78184;DHT22;67442;44.570;18.610;2023-07-13T15:08:07;27.30;65.90
78184;DHT22;67442;44.570;18.610;2023-07-13T15:10:35;27.30;65.90
78184;DHT22;67442;44.570;18.610;2023-07-13T15:13:40;27.20;65.80
78184;DHT22;67442;44.570;18.610;2023-07-13T15:16:24;27.20;65.80
78184;DHT22;67442;44.570;18.610;2023-07-13T15:18:55;27.20;65.80
78184;DHT22;67442;44.570;18.610;2023-07-13T15:21:24;27.20;65.80
78184;DHT22;67442;44.570;18.610;2023-07-13T15:23:51;27.30;66.00
78184;DHT22;67442;44.570;18.610;2023-07-13T15:26:23;27.30;66.00
78184;DHT22;67442;44.570;18.610;2023-07-13T15:28:50;27.30;66.00
78184;DHT22;67442;44.570;18.610;2023-07-13T15:31:23;27.30;66.00
78184;DHT22;67442;44.570;18.610;2023-07-13T15:33:51;27.30;66.00
78184;DHT22;67442;44.570;18.610;2023-07-13T15:36:19;27.30;66.00
78184;DHT22;67442;44.570;18.610;2023-07-13T15:38:47;27.30;66.00
78184;DHT22;67442;44.570;18.610;2023-07-13T15:41:25;27.30;66.00
78184;DHT22;67442;44.570;18.610;2023-07-13T15:43:54;27.30;66.00
78184;DHT22;67442;44.570;18.610;2023-07-13T15:46:28;27.30;66.10
78184;DHT22;67442;44.570;18.610;2023-07-13T15:48:57;27.30;66.00
78184;DHT22;67442;44.570;18.610;2023-07-13T15:51:30;27.30;66.10
78184;DHT22;67442;44.570;18.610;2023-07-13T15:54:05;27.30;66.00
78184;DHT22;67442;44.570;18.610;2023-07-13T15:56:36;27.30;66.00
78184;DHT22;67442;44.570;18.610;2023-07-13T15:59:09;27.30;66.00
78184;DHT22;67442;44.570;18.610;2023-07-13T16:01:39;27.30;66.10
78184;DHT22;67442;44.570;18.610;2023-07-13T16:04:10;27.30;66.00
78184;DHT22;67442;44.570;18.610;2023-07-13T16:06:42;27.30;66.00
78184;DHT22;67442;44.570;18.610;2023-07-13T16:09:22;27.30;66.00
78184;DHT22;67442;44.570;18.610;2023-07-13T16:11:55;27.30;66.00
78184;DHT22;67442;44.570;18.610;2023-07-13T16:14:24;27.30;66.00
78184;DHT22;67442;44.570;18.610;2023-07-13T16:16:55;27.30;66.00
78184;DHT22;67442;44.570;18.610;2023-07-13T16:19:22;27.30;66.00
78184;DHT22;67442;44.570;18.610;2023-07-13T16:21:55;27.30;66.00